Terminal Aerodrome Forecast
Issued by NWS

Home | Current Version | Previous Version | Text Only | Print | Product List | Glossary On
Versions: 1 2 3 4 5 6 7 8 9 10 11 12 13 14
409
FTUS46 KSEW 210530
TAFBFI
TAF
KBFI 210530Z 2106/2206 33004KT P6SM FEW060
     FM211200 VRB03KT P6SM BKN016
     FM211800 20003KT P6SM SCT023
     FM212100 23004KT P6SM SCT030 BKN120=

USA.gov is the U.S. government's official web portal to all federal, state and local government web resources and services.